Pawnee, Louisiana
Current Conditions -  °F | °C
As of 1:15 PM on Friday 28 Nov 2014 (Local Time) from KACP Reporting Station
Clear Clear  
Wind Chill: 62°   Ceiling: Unl
Heat Index: 62°   Visibility: 10mi
Dew Point: 42°   Wind: 7mph
Humidity: 47%   Direction: 180°S
Pressure: 30.29"   Gusts: NA
Location:  30.9922°N, 92.6266°W
Report Text: KACP 281915Z AUTO 18006KT 10SM CLR 17/06 A3029 RMK AO2 T01690055
Loading
Personal Weather Stations






























Interactive Weather Map New forecast layout! Learn more

10-Day Weather Forecast

Advertisements
Track Severe Weather on mobile